createdAt,value
2022-08-16T00:00:40.281Z,24.31
2022-08-16T00:03:13.591Z,24.30
2022-08-16T00:05:48.466Z,24.27
2022-08-16T00:08:35.668Z,24.20
2022-08-16T00:11:08.091Z,24.18
2022-08-16T00:13:42.568Z,24.15
2022-08-16T00:17:05.987Z,24.05
2022-08-16T00:18:56.670Z,24.01
2022-08-16T00:21:25.093Z,23.95
2022-08-16T00:23:51.731Z,23.87
2022-08-16T00:26:35.310Z,23.90
2022-08-16T00:29:05.150Z,23.89
2022-08-16T00:31:58.713Z,23.87
2022-08-16T00:34:22.901Z,23.83
2022-08-16T00:37:10.214Z,23.83
2022-08-16T00:39:36.911Z,23.83
2022-08-16T00:42:05.919Z,23.83
2022-08-16T00:44:39.399Z,23.79
2022-08-16T00:47:16.208Z,23.69
2022-08-16T00:49:44.587Z,23.63
2022-08-16T00:52:29.472Z,23.64
2022-08-16T00:54:59.380Z,23.65
2022-08-16T00:57:27.638Z,23.68
2022-08-16T01:00:19.792Z,23.64
2022-08-16T01:02:48.813Z,23.61
2022-08-16T01:05:16.196Z,23.62
2022-08-16T01:07:52.049Z,23.59
2022-08-16T01:10:32.806Z,23.58
2022-08-16T01:13:12.100Z,23.61
2022-08-16T01:15:47.979Z,23.60
2022-08-16T01:18:39.860Z,23.55
2022-08-16T01:21:41.880Z,23.54
2022-08-16T01:24:53.494Z,23.50
2022-08-16T01:27:31.612Z,23.46
2022-08-16T01:30:04.845Z,23.43
2022-08-16T01:33:01.624Z,23.39
2022-08-16T01:35:52.649Z,23.39
2022-08-16T01:38:25.916Z,23.46
2022-08-16T01:41:19.323Z,23.49
2022-08-16T01:43:54.318Z,23.53
2022-08-16T01:46:39.682Z,23.48
2022-08-16T01:49:43.196Z,23.50
2022-08-16T01:52:29.967Z,23.52
2022-08-16T01:55:18.595Z,23.52
2022-08-16T01:57:53.572Z,23.55
2022-08-16T02:00:28.854Z,23.49
2022-08-16T02:02:58.052Z,23.49
2022-08-16T02:05:24.802Z,23.44
2022-08-16T02:07:52.001Z,23.41
2022-08-16T02:10:20.468Z,23.37
2022-08-16T02:12:56.082Z,23.36
2022-08-16T02:15:29.088Z,23.29
2022-08-16T02:18:01.187Z,23.35
2022-08-16T02:20:33.071Z,23.34
2022-08-16T02:23:05.899Z,23.19
2022-08-16T02:25:51.046Z,23.14
2022-08-16T02:28:23.722Z,23.18
2022-08-16T02:30:52.394Z,23.24
2022-08-16T02:33:24.622Z,23.28
2022-08-16T02:36:14.293Z,23.34
2022-08-16T02:38:56.774Z,23.36
2022-08-16T02:41:24.334Z,23.35
2022-08-16T02:43:53.326Z,23.35
2022-08-16T02:46:20.831Z,23.24
2022-08-16T02:49:01.974Z,23.16
2022-08-16T02:51:29.745Z,23.12
2022-08-16T02:53:59.406Z,23.08
2022-08-16T02:56:32.402Z,23.01
2022-08-16T02:58:59.869Z,23.00
2022-08-16T03:01:36.674Z,23.01
2022-08-16T03:04:29.278Z,22.95
2022-08-16T03:06:57.354Z,22.92
2022-08-16T03:09:38.467Z,22.95
2022-08-16T03:12:06.649Z,23.00
2022-08-16T03:14:34.793Z,23.01
2022-08-16T03:17:06.440Z,23.02
2022-08-16T03:19:48.217Z,23.04
2022-08-16T03:22:28.012Z,23.00
2022-08-16T03:25:01.032Z,22.99
2022-08-16T03:27:32.311Z,23.00
2022-08-16T03:30:25.775Z,23.01
2022-08-16T03:32:59.497Z,23.01
2022-08-16T03:35:36.581Z,23.06
2022-08-16T03:38:33.764Z,23.05
2022-08-16T03:41:24.364Z,22.99
2022-08-16T03:43:58.681Z,23.00
2022-08-16T03:46:48.448Z,22.99
2022-08-16T03:49:36.467Z,23.04
2022-08-16T03:52:05.759Z,22.98
2022-08-16T03:54:35.913Z,22.93
2022-08-16T03:57:05.150Z,22.95
2022-08-16T03:59:33.141Z,22.93
2022-08-16T04:02:12.621Z,23.01
2022-08-16T04:04:50.104Z,23.05
2022-08-16T04:07:17.125Z,23.01
2022-08-16T04:09:47.052Z,23.04
2022-08-16T04:12:54.564Z,23.05
2022-08-16T04:15:02.810Z,23.07
2022-08-16T04:17:35.161Z,23.16
2022-08-16T04:20:23.904Z,23.20
2022-08-16T04:22:55.835Z,23.29
2022-08-16T04:25:23.568Z,23.29
2022-08-16T04:27:54.168Z,23.30
2022-08-16T04:30:32.215Z,23.36
2022-08-16T04:33:04.360Z,23.33
2022-08-16T04:35:34.738Z,23.36
2022-08-16T04:38:10.630Z,23.35
2022-08-16T04:40:50.041Z,23.35
2022-08-16T04:43:18.698Z,23.30
2022-08-16T04:45:47.174Z,23.34
2022-08-16T04:48:28.147Z,23.35
2022-08-16T04:51:00.690Z,23.36
2022-08-16T04:53:41.526Z,23.39
2022-08-16T04:56:11.571Z,23.39
2022-08-16T04:58:45.940Z,23.40
2022-08-16T05:01:15.546Z,23.40
2022-08-16T05:04:00.908Z,23.42
2022-08-16T05:06:46.733Z,23.43
2022-08-16T05:09:22.946Z,23.47
2022-08-16T05:11:53.238Z,23.47
2022-08-16T05:14:45.866Z,23.45
2022-08-16T05:17:14.266Z,23.41
2022-08-16T05:19:46.594Z,23.36
2022-08-16T05:22:28.463Z,23.48
2022-08-16T05:24:57.656Z,23.66
2022-08-16T05:27:24.524Z,23.73
2022-08-16T05:29:57.437Z,23.80
2022-08-16T05:32:32.581Z,23.91
2022-08-16T05:35:11.114Z,23.92
2022-08-16T05:37:42.295Z,23.94
2022-08-16T05:40:16.248Z,23.94
2022-08-16T05:42:47.552Z,23.91
2022-08-16T05:45:21.404Z,23.89
2022-08-16T05:47:59.496Z,23.89
2022-08-16T05:50:35.335Z,23.98
2022-08-16T05:53:04.044Z,24.04
2022-08-16T05:55:36.793Z,24.07
2022-08-16T05:58:08.321Z,24.13
2022-08-16T06:00:37.085Z,24.17
2022-08-16T06:03:05.353Z,24.32
2022-08-16T06:05:57.038Z,24.44
2022-08-16T06:08:32.099Z,24.43
2022-08-16T06:11:09.572Z,24.44
2022-08-16T06:13:37.861Z,24.40
2022-08-16T06:16:18.659Z,24.41
2022-08-16T06:18:50.914Z,24.38
2022-08-16T06:21:22.562Z,24.44
2022-08-16T06:23:55.759Z,24.46
2022-08-16T06:26:24.129Z,24.53
2022-08-16T06:29:07.665Z,24.63
2022-08-16T06:31:46.773Z,24.75
2022-08-16T06:34:54.865Z,24.89
2022-08-16T06:37:04.756Z,25.01
2022-08-16T06:39:49.855Z,25.08
2022-08-16T06:42:39.561Z,25.27
2022-08-16T06:45:31.141Z,25.23
2022-08-16T06:48:05.563Z,25.26
2022-08-16T06:50:33.748Z,25.40
2022-08-16T06:53:08.479Z,25.47
2022-08-16T06:55:43.257Z,25.30
2022-08-16T06:58:21.949Z,25.42
2022-08-16T07:00:58.089Z,25.41
2022-08-16T07:03:32.172Z,25.38
2022-08-16T07:06:03.756Z,25.35
2022-08-16T07:08:37.939Z,25.66
2022-08-16T07:11:09.256Z,25.67
2022-08-16T07:14:03.967Z,25.26
2022-08-16T07:16:28.109Z,25.49
2022-08-16T07:18:59.113Z,25.84
2022-08-16T07:21:45.839Z,25.69
2022-08-16T07:24:26.820Z,25.64
2022-08-16T07:27:08.557Z,25.73
2022-08-16T07:29:40.284Z,25.69
2022-08-16T07:32:11.327Z,24.91
2022-08-16T07:34:48.612Z,25.42
2022-08-16T07:37:23.082Z,25.58
2022-08-16T07:40:11.015Z,25.53
2022-08-16T07:42:40.611Z,25.69
2022-08-16T07:45:10.188Z,25.67
2022-08-16T07:47:44.633Z,25.20
2022-08-16T07:50:55.578Z,25.71
2022-08-16T07:53:04.459Z,25.95
2022-08-16T07:55:45.969Z,25.52
2022-08-16T07:58:34.378Z,25.70
2022-08-16T08:01:10.699Z,25.83
2022-08-16T08:03:48.243Z,25.36
2022-08-16T08:06:21.369Z,25.41
2022-08-16T08:08:57.186Z,25.68
2022-08-16T08:11:31.076Z,25.74
2022-08-16T08:14:06.844Z,25.85
2022-08-16T08:16:45.460Z,25.93
2022-08-16T08:19:22.792Z,26.04
2022-08-16T08:21:58.768Z,25.79
2022-08-16T08:24:46.827Z,25.56
2022-08-16T08:27:22.774Z,25.23
2022-08-16T08:30:52.071Z,25.68
2022-08-16T08:32:57.553Z,25.36
2022-08-16T08:35:28.672Z,25.36
2022-08-16T08:37:57.180Z,25.29
2022-08-16T08:40:28.492Z,25.64
2022-08-16T08:43:11.379Z,25.68
2022-08-16T08:45:46.900Z,25.84
2022-08-16T08:48:33.620Z,25.95
2022-08-16T08:51:12.028Z,26.11
2022-08-16T08:53:57.802Z,26.40
2022-08-16T08:56:34.925Z,26.63
2022-08-16T08:59:23.619Z,26.53
2022-08-16T09:01:58.115Z,26.54
2022-08-16T09:04:43.462Z,26.36
2022-08-16T09:07:15.831Z,26.38
2022-08-16T09:09:43.049Z,26.76
2022-08-16T09:12:35.429Z,27.05
2022-08-16T09:15:08.257Z,27.22
2022-08-16T09:17:51.502Z,27.20
2022-08-16T09:20:23.519Z,27.21
2022-08-16T09:22:51.157Z,27.16
2022-08-16T09:25:26.485Z,27.36
2022-08-16T09:28:10.167Z,27.11
2022-08-16T09:30:45.087Z,26.58
2022-08-16T09:33:19.962Z,26.69
2022-08-16T09:35:53.013Z,26.89
2022-08-16T09:38:31.791Z,26.63
2022-08-16T09:41:01.084Z,26.92
2022-08-16T09:43:58.674Z,27.32
2022-08-16T09:46:45.612Z,27.39
2022-08-16T09:49:03.816Z,27.55
2022-08-16T09:51:36.748Z,27.42
2022-08-16T09:54:06.020Z,26.63
2022-08-16T09:56:35.942Z,26.62
2022-08-16T09:59:08.207Z,26.77
2022-08-16T10:01:37.084Z,26.71
2022-08-16T10:04:28.939Z,27.12
2022-08-16T10:09:54.103Z,27.42
2022-08-16T10:12:35.464Z,27.67
2022-08-16T10:15:16.001Z,27.74
2022-08-16T10:18:00.956Z,27.59
2022-08-16T10:20:38.133Z,27.39
2022-08-16T10:23:08.054Z,27.40
2022-08-16T10:27:19.332Z,27.31
2022-08-16T10:28:32.469Z,27.51
2022-08-16T10:31:08.173Z,27.33
2022-08-16T10:33:40.364Z,27.59
2022-08-16T10:36:08.894Z,27.34
2022-08-16T10:38:38.960Z,27.04
2022-08-16T10:41:10.348Z,26.33
2022-08-16T10:43:39.275Z,26.10
2022-08-16T10:46:39.843Z,26.37
2022-08-16T10:48:58.688Z,26.28
2022-08-16T10:51:34.653Z,26.54
2022-08-16T10:54:28.691Z,26.08
2022-08-16T10:56:59.073Z,26.26
2022-08-16T10:59:39.039Z,26.16
2022-08-16T11:03:04.737Z,26.91
2022-08-16T11:05:05.984Z,26.27
2022-08-16T11:07:52.382Z,26.62
2022-08-16T11:19:12.380Z,26.18
2022-08-16T11:24:41.392Z,25.25
2022-08-16T11:27:35.299Z,25.73
2022-08-16T11:30:09.207Z,25.33
2022-08-16T11:32:44.378Z,26.13
2022-08-16T11:35:16.032Z,26.01
2022-08-16T11:40:44.457Z,26.06
2022-08-16T11:43:13.152Z,26.30
2022-08-16T11:45:44.088Z,26.08
2022-08-16T11:48:22.972Z,25.72
2022-08-16T11:50:49.688Z,26.23
2022-08-16T11:53:22.047Z,26.22
2022-08-16T11:55:54.458Z,26.37
2022-08-16T11:58:24.542Z,25.74
2022-08-16T12:00:53.128Z,26.26
2022-08-16T12:03:36.723Z,26.20
2022-08-16T12:06:25.007Z,26.50
2022-08-16T12:08:57.559Z,26.76
2022-08-16T12:11:29.007Z,26.54
2022-08-16T12:14:05.744Z,26.91
2022-08-16T12:16:37.383Z,26.24
2022-08-16T12:19:10.394Z,26.28
2022-08-16T12:21:58.475Z,26.25
2022-08-16T12:24:27.103Z,25.85
2022-08-16T12:26:54.215Z,26.66
2022-08-16T12:29:21.913Z,26.57
2022-08-16T12:32:00.652Z,26.67
2022-08-16T12:34:39.640Z,26.31
2022-08-16T12:37:18.343Z,26.20
2022-08-16T12:39:51.364Z,26.35
2022-08-16T12:42:20.610Z,26.42
2022-08-16T12:44:49.571Z,26.43
2022-08-16T12:47:38.641Z,26.83
2022-08-16T12:50:10.461Z,26.47
2022-08-16T12:52:45.141Z,26.50
2022-08-16T12:55:20.820Z,26.63
2022-08-16T12:57:57.867Z,26.96
2022-08-16T13:00:32.999Z,26.58
2022-08-16T13:03:04.731Z,26.98
2022-08-16T13:05:53.401Z,27.37
2022-08-16T13:08:27.476Z,27.60
2022-08-16T13:10:58.653Z,26.80
2022-08-16T13:13:25.890Z,27.34
2022-08-16T13:16:00.892Z,27.87
2022-08-16T13:18:34.682Z,27.79
2022-08-16T13:21:05.034Z,27.61
2022-08-16T13:23:31.756Z,27.96
2022-08-16T13:26:01.890Z,28.41
2022-08-16T13:28:28.755Z,28.38
2022-08-16T13:30:57.917Z,28.23
2022-08-16T13:33:30.427Z,28.32
2022-08-16T13:36:01.201Z,28.29
2022-08-16T13:38:37.076Z,28.51
2022-08-16T13:41:08.514Z,27.87
2022-08-16T13:43:38.045Z,27.41
2022-08-16T13:46:05.611Z,27.88
2022-08-16T13:48:37.135Z,28.20
2022-08-16T13:51:17.412Z,27.85
2022-08-16T13:53:59.717Z,27.40
2022-08-16T13:56:36.952Z,27.56
2022-08-16T13:59:13.981Z,27.70
2022-08-16T14:01:47.513Z,27.96
2022-08-16T14:04:26.408Z,27.94
2022-08-16T14:06:56.421Z,26.93
2022-08-16T14:09:28.324Z,27.31
2022-08-16T14:11:57.440Z,27.52
2022-08-16T14:14:28.915Z,27.21
2022-08-16T14:17:01.628Z,27.50
2022-08-16T14:19:31.064Z,27.73
2022-08-16T14:22:14.626Z,27.92
2022-08-16T14:24:47.480Z,27.95
2022-08-16T14:27:17.572Z,27.68
2022-08-16T14:29:45.503Z,27.94
2022-08-16T14:32:32.414Z,27.46
2022-08-16T14:35:13.927Z,27.85
2022-08-16T14:37:43.162Z,27.54
2022-08-16T14:40:13.685Z,27.51
2022-08-16T14:42:41.183Z,27.89
2022-08-16T14:45:13.591Z,27.69
2022-08-16T14:47:41.016Z,27.72
2022-08-16T14:50:12.966Z,27.66
2022-08-16T14:52:55.219Z,27.03
2022-08-16T14:55:26.086Z,27.50
2022-08-16T14:57:54.557Z,27.84
2022-08-16T15:00:33.155Z,28.32
2022-08-16T15:03:06.847Z,27.99
2022-08-16T15:05:38.299Z,28.16
2022-08-16T15:08:05.965Z,28.22
2022-08-16T15:10:44.916Z,28.15
2022-08-16T15:13:13.857Z,28.25
2022-08-16T15:15:43.430Z,27.99
2022-08-16T15:18:12.132Z,28.13
2022-08-16T15:20:41.416Z,28.11
2022-08-16T15:23:10.013Z,27.64
2022-08-16T15:25:42.649Z,27.77
2022-08-16T15:28:23.951Z,28.14
2022-08-16T15:31:04.374Z,28.02
2022-08-16T15:33:42.165Z,28.09
2022-08-16T15:36:17.496Z,27.61
2022-08-16T15:39:03.845Z,28.14
2022-08-16T15:41:42.657Z,27.49
2022-08-16T15:44:22.567Z,27.33
2022-08-16T15:46:55.777Z,27.62
2022-08-16T15:49:39.062Z,27.74
2022-08-16T15:52:25.002Z,27.64
2022-08-16T15:54:58.102Z,27.13
2022-08-16T15:57:27.788Z,27.66
2022-08-16T16:00:04.766Z,28.07
2022-08-16T16:02:42.306Z,28.24
2022-08-16T16:05:10.482Z,28.03
2022-08-16T16:07:55.652Z,28.02
2022-08-16T16:10:29.445Z,28.26
2022-08-16T16:12:58.105Z,28.20
2022-08-16T16:15:29.833Z,28.06
2022-08-16T16:17:57.606Z,27.92
2022-08-16T16:20:27.861Z,28.19
2022-08-16T16:23:04.074Z,28.54
2022-08-16T16:25:39.950Z,28.68
2022-08-16T16:28:46.354Z,28.38
2022-08-16T16:31:07.585Z,28.29
2022-08-16T16:33:43.228Z,27.58
2022-08-16T16:36:19.306Z,27.85
2022-08-16T16:38:47.587Z,28.10
2022-08-16T16:41:20.496Z,28.06
2022-08-16T16:43:50.322Z,28.66
2022-08-16T16:46:40.411Z,28.65
2022-08-16T16:49:13.938Z,28.76
2022-08-16T16:51:49.699Z,27.98
2022-08-16T16:54:27.522Z,27.87
2022-08-16T16:56:55.468Z,27.73
2022-08-16T16:59:25.505Z,27.98
2022-08-16T17:02:38.835Z,28.06
2022-08-16T17:04:47.649Z,28.09
2022-08-16T17:07:14.891Z,28.24
2022-08-16T17:09:41.718Z,28.40
2022-08-16T17:12:14.581Z,28.63
2022-08-16T17:14:55.350Z,28.98
2022-08-16T17:17:22.878Z,29.33
2022-08-16T17:19:51.136Z,29.57
2022-08-16T17:22:20.509Z,29.56
2022-08-16T17:24:50.714Z,29.25
2022-08-16T17:27:34.173Z,28.33
2022-08-16T17:30:18.268Z,28.10
2022-08-16T17:32:54.669Z,28.01
2022-08-16T17:35:33.987Z,28.12
2022-08-16T17:38:07.345Z,28.24
2022-08-16T17:40:47.458Z,28.03
2022-08-16T17:43:29.300Z,27.89
2022-08-16T17:46:03.740Z,27.98
2022-08-16T17:48:31.204Z,28.04
2022-08-16T17:51:01.978Z,27.94
2022-08-16T17:53:30.188Z,27.01
2022-08-16T17:55:56.933Z,27.00
2022-08-16T17:58:27.252Z,26.95
2022-08-16T18:01:01.067Z,26.70
2022-08-16T18:04:02.186Z,26.69
2022-08-16T18:06:23.740Z,26.44
2022-08-16T18:08:55.914Z,26.32
2022-08-16T18:11:27.751Z,26.44
2022-08-16T18:13:55.061Z,26.54
2022-08-16T18:16:21.828Z,26.65
2022-08-16T18:18:48.461Z,26.63
2022-08-16T18:21:33.904Z,26.58
2022-08-16T18:24:00.847Z,26.36
2022-08-16T18:26:27.578Z,25.97
2022-08-16T18:28:54.321Z,25.76
2022-08-16T18:31:21.010Z,25.76
2022-08-16T18:33:47.608Z,25.81
2022-08-16T18:36:20.060Z,25.81
2022-08-16T18:38:49.291Z,25.72
2022-08-16T18:41:16.395Z,25.43
2022-08-16T18:44:23.717Z,25.44
2022-08-16T18:46:29.764Z,25.48
2022-08-16T18:48:56.998Z,25.41
2022-08-16T18:51:25.479Z,25.34
2022-08-16T18:53:53.173Z,25.28
2022-08-16T18:56:19.905Z,25.20
2022-08-16T18:58:46.545Z,25.15
2022-08-16T19:01:13.438Z,25.09
2022-08-16T19:03:40.089Z,24.94
2022-08-16T19:06:13.893Z,24.89
2022-08-16T19:08:43.519Z,24.81
2022-08-16T19:11:13.918Z,24.66
2022-08-16T19:13:44.019Z,24.63
2022-08-16T19:16:12.073Z,24.60
2022-08-16T19:18:39.279Z,24.63
2022-08-16T19:21:07.678Z,24.61
2022-08-16T19:23:37.276Z,24.57
2022-08-16T19:26:20.287Z,24.53
2022-08-16T19:28:58.363Z,24.52
2022-08-16T19:31:30.135Z,24.47
2022-08-16T19:33:57.642Z,24.37
2022-08-16T19:36:35.746Z,24.38
2022-08-16T19:39:13.614Z,24.34
2022-08-16T19:41:46.416Z,24.34
2022-08-16T19:44:20.049Z,24.20
2022-08-16T19:46:48.666Z,24.08
2022-08-16T19:49:16.559Z,23.96
2022-08-16T19:51:47.544Z,23.92
2022-08-16T19:54:14.871Z,23.93
2022-08-16T19:56:41.600Z,23.86
2022-08-16T19:59:39.181Z,23.77
2022-08-16T20:01:55.081Z,23.73
2022-08-16T20:04:23.464Z,23.70
2022-08-16T20:06:52.538Z,23.75
2022-08-16T20:09:20.447Z,23.75
2022-08-16T20:11:48.242Z,23.72
2022-08-16T20:14:24.360Z,23.73
2022-08-16T20:16:56.862Z,23.71
2022-08-16T20:19:24.880Z,23.65
2022-08-16T20:21:51.500Z,23.61
2022-08-16T20:24:35.745Z,23.59
2022-08-16T20:27:05.030Z,23.54
2022-08-16T20:29:31.684Z,23.49
2022-08-16T20:31:58.632Z,23.40
2022-08-16T20:34:25.295Z,23.42
2022-08-16T20:36:51.937Z,23.45
2022-08-16T20:39:18.675Z,23.44
2022-08-16T20:41:45.336Z,23.45
2022-08-16T20:44:12.607Z,23.43
2022-08-16T20:46:39.908Z,23.44
2022-08-16T20:49:09.287Z,23.40
2022-08-16T20:51:49.824Z,23.38
2022-08-16T20:54:18.156Z,23.42
2022-08-16T20:56:44.695Z,23.52
2022-08-16T20:59:11.284Z,23.63
2022-08-16T21:01:45.993Z,23.57
2022-08-16T21:04:16.230Z,23.47
2022-08-16T21:06:42.876Z,23.44
2022-08-16T21:09:23.557Z,23.37
2022-08-16T21:11:53.413Z,23.36
2022-08-16T21:14:20.177Z,23.36
2022-08-16T21:16:46.843Z,23.30
2022-08-16T21:19:13.795Z,23.30
2022-08-16T21:21:40.506Z,23.22
2022-08-16T21:24:07.261Z,23.21
2022-08-16T21:26:38.981Z,23.18
2022-08-16T21:29:07.852Z,23.17
2022-08-16T21:31:40.277Z,23.22
2022-08-16T21:34:08.166Z,23.22
2022-08-16T21:36:36.333Z,23.23
2022-08-16T21:39:06.132Z,23.16
2022-08-16T21:41:33.729Z,23.15
2022-08-16T21:44:00.352Z,23.12
2022-08-16T21:46:26.970Z,23.09
2022-08-16T21:48:53.557Z,23.08
2022-08-16T21:51:20.674Z,23.13
2022-08-16T21:53:47.418Z,23.14
2022-08-16T21:56:17.295Z,23.22
2022-08-16T21:58:45.531Z,23.25
2022-08-16T22:01:12.276Z,23.30
2022-08-16T22:03:39.056Z,23.34
2022-08-16T22:06:12.785Z,23.45
2022-08-16T22:08:48.870Z,23.43
2022-08-16T22:11:18.516Z,23.38
2022-08-16T22:13:57.298Z,23.36
2022-08-16T22:16:29.085Z,23.43
2022-08-16T22:18:55.789Z,23.38
2022-08-16T22:21:22.694Z,23.33
2022-08-16T22:23:55.175Z,23.32
2022-08-16T22:26:39.613Z,23.27
2022-08-16T22:29:11.458Z,23.29
2022-08-16T22:31:39.414Z,23.25
2022-08-16T22:34:06.585Z,23.26
2022-08-16T22:36:33.799Z,23.28
2022-08-16T22:39:03.645Z,23.31
2022-08-16T22:41:31.974Z,23.26
2022-08-16T22:44:00.051Z,23.28
2022-08-16T22:46:26.817Z,23.25
2022-08-16T22:48:53.412Z,23.27
2022-08-16T22:51:21.831Z,23.28
2022-08-16T22:53:48.718Z,23.29
2022-08-16T22:56:18.325Z,23.26
2022-08-16T22:58:46.085Z,23.27
2022-08-16T23:01:14.362Z,23.21
2022-08-16T23:03:41.679Z,23.22
2022-08-16T23:06:11.929Z,23.25
2022-08-16T23:08:41.179Z,23.20
2022-08-16T23:11:22.680Z,23.22
2022-08-16T23:13:55.063Z,22.98
2022-08-16T23:16:33.384Z,22.97
2022-08-16T23:19:06.908Z,22.94
2022-08-16T23:21:34.665Z,22.93
2022-08-16T23:24:02.125Z,22.91
2022-08-16T23:26:36.479Z,22.86
2022-08-16T23:29:24.084Z,22.85
2022-08-16T23:31:55.910Z,22.90
2022-08-16T23:34:22.701Z,22.87
2022-08-16T23:36:49.324Z,22.91
2022-08-16T23:39:15.939Z,22.92
2022-08-16T23:41:43.813Z,22.91
2022-08-16T23:44:56.923Z,22.83
2022-08-16T23:46:57.208Z,22.73
2022-08-16T23:49:55.924Z,22.69
2022-08-16T23:52:10.701Z,22.68
2022-08-16T23:54:37.277Z,22.63
2022-08-16T23:57:04.101Z,22.63
2022-08-16T23:59:35.949Z,22.69
